sensor_id;sensor_type;location;lat;lon;timestamp;P1;durP1;ratioP1;P2;durP2;ratioP2
2674;SDS011;1347;42.122;24.746;2023-03-13T00:01:47;7.83;;;5.90;;
2674;SDS011;1347;42.122;24.746;2023-03-13T00:04:15;9.00;;;6.43;;
2674;SDS011;1347;42.122;24.746;2023-03-13T00:06:43;8.67;;;5.90;;
2674;SDS011;1347;42.122;24.746;2023-03-13T00:09:11;12.30;;;5.90;;
2674;SDS011;1347;42.122;24.746;2023-03-13T00:11:39;7.63;;;5.70;;
2674;SDS011;1347;42.122;24.746;2023-03-13T00:14:06;7.10;;;5.27;;
2674;SDS011;1347;42.122;24.746;2023-03-13T00:16:34;8.17;;;6.33;;
2674;SDS011;1347;42.122;24.746;2023-03-13T00:19:02;7.80;;;6.13;;
2674;SDS011;1347;42.122;24.746;2023-03-13T00:21:30;6.80;;;5.93;;
2674;SDS011;1347;42.122;24.746;2023-03-13T00:23:59;7.80;;;5.43;;
2674;SDS011;1347;42.122;24.746;2023-03-13T00:26:26;7.60;;;5.87;;
2674;SDS011;1347;42.122;24.746;2023-03-13T00:28:54;8.73;;;4.93;;
2674;SDS011;1347;42.122;24.746;2023-03-13T00:31:22;6.67;;;5.57;;
2674;SDS011;1347;42.122;24.746;2023-03-13T00:33:50;5.23;;;4.70;;
2674;SDS011;1347;42.122;24.746;2023-03-13T00:36:19;6.30;;;5.07;;
2674;SDS011;1347;42.122;24.746;2023-03-13T00:38:47;5.90;;;5.10;;
2674;SDS011;1347;42.122;24.746;2023-03-13T00:41:16;6.23;;;5.27;;
2674;SDS011;1347;42.122;24.746;2023-03-13T00:43:45;5.60;;;4.80;;
2674;SDS011;1347;42.122;24.746;2023-03-13T00:46:13;5.53;;;5.00;;
2674;SDS011;1347;42.122;24.746;2023-03-13T00:48:41;6.47;;;5.20;;
2674;SDS011;1347;42.122;24.746;2023-03-13T00:51:09;6.70;;;5.90;;
2674;SDS011;1347;42.122;24.746;2023-03-13T00:53:36;6.63;;;5.67;;
2674;SDS011;1347;42.122;24.746;2023-03-13T00:56:04;6.80;;;5.57;;
2674;SDS011;1347;42.122;24.746;2023-03-13T00:58:34;6.90;;;5.70;;
2674;SDS011;1347;42.122;24.746;2023-03-13T01:01:06;7.50;;;6.80;;
2674;SDS011;1347;42.122;24.746;2023-03-13T01:03:34;8.10;;;5.90;;
2674;SDS011;1347;42.122;24.746;2023-03-13T01:06:02;7.57;;;6.87;;
2674;SDS011;1347;42.122;24.746;2023-03-13T01:08:31;8.50;;;5.57;;
2674;SDS011;1347;42.122;24.746;2023-03-13T01:10:59;6.60;;;5.73;;
2674;SDS011;1347;42.122;24.746;2023-03-13T01:15:55;8.30;;;6.07;;
2674;SDS011;1347;42.122;24.746;2023-03-13T01:18:22;13.50;;;6.20;;
2674;SDS011;1347;42.122;24.746;2023-03-13T01:20:49;8.93;;;6.37;;
2674;SDS011;1347;42.122;24.746;2023-03-13T01:23:16;6.77;;;5.87;;
2674;SDS011;1347;42.122;24.746;2023-03-13T01:25:43;10.03;;;6.73;;
2674;SDS011;1347;42.122;24.746;2023-03-13T01:28:09;5.97;;;5.40;;
2674;SDS011;1347;42.122;24.746;2023-03-13T01:30:36;6.57;;;5.97;;
2674;SDS011;1347;42.122;24.746;2023-03-13T01:33:04;7.17;;;6.07;;
2674;SDS011;1347;42.122;24.746;2023-03-13T01:35:31;9.80;;;6.93;;
2674;SDS011;1347;42.122;24.746;2023-03-13T01:37:58;6.07;;;5.47;;
2674;SDS011;1347;42.122;24.746;2023-03-13T01:40:25;10.10;;;6.10;;
2674;SDS011;1347;42.122;24.746;2023-03-13T01:42:53;9.27;;;6.60;;
2674;SDS011;1347;42.122;24.746;2023-03-13T01:48:25;14.37;;;6.17;;
2674;SDS011;1347;42.122;24.746;2023-03-13T01:50:59;8.23;;;6.67;;
2674;SDS011;1347;42.122;24.746;2023-03-13T01:53:29;10.10;;;7.00;;
2674;SDS011;1347;42.122;24.746;2023-03-13T01:55:58;7.47;;;6.77;;
2674;SDS011;1347;42.122;24.746;2023-03-13T01:58:29;7.23;;;6.50;;
2674;SDS011;1347;42.122;24.746;2023-03-13T02:00:57;7.87;;;6.93;;
2674;SDS011;1347;42.122;24.746;2023-03-13T02:03:26;7.80;;;6.70;;
2674;SDS011;1347;42.122;24.746;2023-03-13T02:05:54;11.60;;;7.37;;
2674;SDS011;1347;42.122;24.746;2023-03-13T02:08:24;9.07;;;6.70;;
2674;SDS011;1347;42.122;24.746;2023-03-13T02:10:58;7.90;;;6.50;;
2674;SDS011;1347;42.122;24.746;2023-03-13T02:13:33;9.20;;;7.07;;
2674;SDS011;1347;42.122;24.746;2023-03-13T02:16:00;9.30;;;6.50;;
2674;SDS011;1347;42.122;24.746;2023-03-13T02:18:28;7.23;;;5.73;;
2674;SDS011;1347;42.122;24.746;2023-03-13T02:20:57;8.43;;;6.87;;
2674;SDS011;1347;42.122;24.746;2023-03-13T02:23:32;6.30;;;5.70;;
2674;SDS011;1347;42.122;24.746;2023-03-13T02:26:06;7.27;;;6.10;;
2674;SDS011;1347;42.122;24.746;2023-03-13T02:28:33;7.73;;;6.23;;
2674;SDS011;1347;42.122;24.746;2023-03-13T02:31:03;6.90;;;6.20;;
2674;SDS011;1347;42.122;24.746;2023-03-13T02:33:31;7.40;;;6.30;;
2674;SDS011;1347;42.122;24.746;2023-03-13T02:36:02;7.27;;;6.53;;
2674;SDS011;1347;42.122;24.746;2023-03-13T02:38:31;7.67;;;6.57;;
2674;SDS011;1347;42.122;24.746;2023-03-13T02:41:00;6.70;;;6.00;;
2674;SDS011;1347;42.122;24.746;2023-03-13T02:43:32;8.70;;;7.80;;
2674;SDS011;1347;42.122;24.746;2023-03-13T02:46:00;8.10;;;6.00;;
2674;SDS011;1347;42.122;24.746;2023-03-13T02:48:29;7.77;;;6.33;;
2674;SDS011;1347;42.122;24.746;2023-03-13T02:50:58;8.03;;;6.27;;
2674;SDS011;1347;42.122;24.746;2023-03-13T02:53:27;9.33;;;7.10;;
2674;SDS011;1347;42.122;24.746;2023-03-13T02:55:54;10.67;;;7.30;;
2674;SDS011;1347;42.122;24.746;2023-03-13T02:58:22;8.13;;;6.77;;
2674;SDS011;1347;42.122;24.746;2023-03-13T03:00:51;9.80;;;8.37;;
2674;SDS011;1347;42.122;24.746;2023-03-13T03:03:18;9.40;;;7.40;;
2674;SDS011;1347;42.122;24.746;2023-03-13T03:05:45;10.43;;;7.90;;
2674;SDS011;1347;42.122;24.746;2023-03-13T03:08:12;8.70;;;7.60;;
2674;SDS011;1347;42.122;24.746;2023-03-13T03:10:39;10.03;;;7.70;;
2674;SDS011;1347;42.122;24.746;2023-03-13T03:13:06;9.80;;;8.70;;
2674;SDS011;1347;42.122;24.746;2023-03-13T03:15:32;8.83;;;7.90;;
2674;SDS011;1347;42.122;24.746;2023-03-13T03:18:01;9.90;;;8.87;;
2674;SDS011;1347;42.122;24.746;2023-03-13T03:20:28;10.87;;;8.50;;
2674;SDS011;1347;42.122;24.746;2023-03-13T03:22:54;9.53;;;8.17;;
2674;SDS011;1347;42.122;24.746;2023-03-13T03:25:21;11.37;;;9.07;;
2674;SDS011;1347;42.122;24.746;2023-03-13T03:27:48;12.23;;;8.90;;
2674;SDS011;1347;42.122;24.746;2023-03-13T03:30:15;12.20;;;8.43;;
2674;SDS011;1347;42.122;24.746;2023-03-13T03:32:42;10.13;;;8.43;;
2674;SDS011;1347;42.122;24.746;2023-03-13T03:35:10;12.73;;;9.70;;
2674;SDS011;1347;42.122;24.746;2023-03-13T03:37:37;12.90;;;9.10;;
2674;SDS011;1347;42.122;24.746;2023-03-13T03:40:04;9.87;;;8.87;;
2674;SDS011;1347;42.122;24.746;2023-03-13T03:42:32;11.03;;;9.47;;
2674;SDS011;1347;42.122;24.746;2023-03-13T03:44:59;13.77;;;9.40;;
2674;SDS011;1347;42.122;24.746;2023-03-13T03:47:26;10.30;;;8.90;;
2674;SDS011;1347;42.122;24.746;2023-03-13T03:49:53;11.17;;;9.40;;
2674;SDS011;1347;42.122;24.746;2023-03-13T03:52:21;11.30;;;9.27;;
2674;SDS011;1347;42.122;24.746;2023-03-13T03:54:48;10.70;;;9.30;;
2674;SDS011;1347;42.122;24.746;2023-03-13T03:57:15;12.03;;;9.60;;
2674;SDS011;1347;42.122;24.746;2023-03-13T03:59:42;10.43;;;8.60;;
2674;SDS011;1347;42.122;24.746;2023-03-13T04:02:09;11.80;;;8.90;;
2674;SDS011;1347;42.122;24.746;2023-03-13T04:04:36;10.00;;;8.60;;
2674;SDS011;1347;42.122;24.746;2023-03-13T04:07:03;11.27;;;8.60;;
2674;SDS011;1347;42.122;24.746;2023-03-13T04:09:31;11.70;;;9.03;;
2674;SDS011;1347;42.122;24.746;2023-03-13T04:11:58;10.73;;;9.67;;
2674;SDS011;1347;42.122;24.746;2023-03-13T04:14:25;10.97;;;8.87;;
2674;SDS011;1347;42.122;24.746;2023-03-13T04:16:51;13.07;;;9.87;;
2674;SDS011;1347;42.122;24.746;2023-03-13T04:19:18;13.50;;;10.33;;
2674;SDS011;1347;42.122;24.746;2023-03-13T04:21:45;13.67;;;10.43;;
2674;SDS011;1347;42.122;24.746;2023-03-13T04:24:12;12.10;;;9.67;;
2674;SDS011;1347;42.122;24.746;2023-03-13T04:26:40;12.07;;;10.67;;
2674;SDS011;1347;42.122;24.746;2023-03-13T04:29:07;12.70;;;10.17;;
2674;SDS011;1347;42.122;24.746;2023-03-13T04:31:34;12.80;;;10.20;;
2674;SDS011;1347;42.122;24.746;2023-03-13T04:34:01;12.70;;;9.90;;
2674;SDS011;1347;42.122;24.746;2023-03-13T04:36:28;15.87;;;11.07;;
2674;SDS011;1347;42.122;24.746;2023-03-13T04:38:55;19.23;;;12.83;;
2674;SDS011;1347;42.122;24.746;2023-03-13T04:41:22;16.47;;;11.80;;
2674;SDS011;1347;42.122;24.746;2023-03-13T04:43:50;16.63;;;12.20;;
2674;SDS011;1347;42.122;24.746;2023-03-13T04:46:17;14.90;;;12.20;;
2674;SDS011;1347;42.122;24.746;2023-03-13T04:48:44;14.27;;;11.57;;
2674;SDS011;1347;42.122;24.746;2023-03-13T04:51:11;12.73;;;10.53;;
2674;SDS011;1347;42.122;24.746;2023-03-13T04:53:38;14.20;;;10.00;;
2674;SDS011;1347;42.122;24.746;2023-03-13T04:56:05;12.60;;;10.63;;
2674;SDS011;1347;42.122;24.746;2023-03-13T04:58:32;12.03;;;10.67;;
2674;SDS011;1347;42.122;24.746;2023-03-13T05:01:00;10.93;;;9.30;;
2674;SDS011;1347;42.122;24.746;2023-03-13T05:03:27;10.80;;;9.47;;
2674;SDS011;1347;42.122;24.746;2023-03-13T05:05:54;10.43;;;8.63;;
2674;SDS011;1347;42.122;24.746;2023-03-13T05:08:21;11.87;;;9.20;;
2674;SDS011;1347;42.122;24.746;2023-03-13T05:10:48;13.27;;;10.10;;
2674;SDS011;1347;42.122;24.746;2023-03-13T05:13:15;12.00;;;10.30;;
2674;SDS011;1347;42.122;24.746;2023-03-13T05:15:42;14.70;;;10.57;;
2674;SDS011;1347;42.122;24.746;2023-03-13T05:18:11;12.57;;;10.63;;
2674;SDS011;1347;42.122;24.746;2023-03-13T05:20:38;17.07;;;10.90;;
2674;SDS011;1347;42.122;24.746;2023-03-13T05:23:04;23.67;;;16.93;;
2674;SDS011;1347;42.122;24.746;2023-03-13T05:25:31;14.43;;;11.27;;
2674;SDS011;1347;42.122;24.746;2023-03-13T05:27:58;14.43;;;11.10;;
2674;SDS011;1347;42.122;24.746;2023-03-13T05:30:25;14.93;;;12.40;;
2674;SDS011;1347;42.122;24.746;2023-03-13T05:32:52;24.93;;;13.30;;
2674;SDS011;1347;42.122;24.746;2023-03-13T05:35:21;20.27;;;12.20;;
2674;SDS011;1347;42.122;24.746;2023-03-13T05:37:47;19.13;;;13.30;;
2674;SDS011;1347;42.122;24.746;2023-03-13T05:40:14;15.23;;;11.60;;
2674;SDS011;1347;42.122;24.746;2023-03-13T05:42:41;13.53;;;11.57;;
2674;SDS011;1347;42.122;24.746;2023-03-13T05:45:09;14.37;;;11.30;;
2674;SDS011;1347;42.122;24.746;2023-03-13T05:47:36;12.10;;;10.57;;
2674;SDS011;1347;42.122;24.746;2023-03-13T05:50:04;17.87;;;10.57;;
2674;SDS011;1347;42.122;24.746;2023-03-13T05:52:33;13.47;;;10.80;;
2674;SDS011;1347;42.122;24.746;2023-03-13T05:55:00;19.20;;;11.53;;
2674;SDS011;1347;42.122;24.746;2023-03-13T05:57:27;20.40;;;10.83;;
2674;SDS011;1347;42.122;24.746;2023-03-13T05:59:54;12.90;;;10.67;;
2674;SDS011;1347;42.122;24.746;2023-03-13T06:02:21;15.17;;;11.77;;
2674;SDS011;1347;42.122;24.746;2023-03-13T06:04:48;14.73;;;10.80;;
2674;SDS011;1347;42.122;24.746;2023-03-13T06:07:15;13.80;;;9.53;;
2674;SDS011;1347;42.122;24.746;2023-03-13T06:09:43;12.33;;;9.97;;
2674;SDS011;1347;42.122;24.746;2023-03-13T06:12:10;11.57;;;10.33;;
2674;SDS011;1347;42.122;24.746;2023-03-13T06:14:37;11.53;;;9.87;;
2674;SDS011;1347;42.122;24.746;2023-03-13T06:17:04;15.60;;;10.37;;
2674;SDS011;1347;42.122;24.746;2023-03-13T06:19:31;18.97;;;11.93;;
2674;SDS011;1347;42.122;24.746;2023-03-13T06:21:58;11.57;;;10.37;;
2674;SDS011;1347;42.122;24.746;2023-03-13T06:24:25;13.00;;;10.90;;
2674;SDS011;1347;42.122;24.746;2023-03-13T06:26:56;12.80;;;10.40;;
2674;SDS011;1347;42.122;24.746;2023-03-13T06:29:23;10.80;;;8.97;;
2674;SDS011;1347;42.122;24.746;2023-03-13T06:31:50;12.90;;;10.30;;
2674;SDS011;1347;42.122;24.746;2023-03-13T06:34:17;12.80;;;10.37;;
2674;SDS011;1347;42.122;24.746;2023-03-13T06:36:44;12.47;;;10.43;;
2674;SDS011;1347;42.122;24.746;2023-03-13T06:39:11;9.97;;;8.90;;
2674;SDS011;1347;42.122;24.746;2023-03-13T06:41:38;11.20;;;8.83;;
2674;SDS011;1347;42.122;24.746;2023-03-13T06:44:06;11.30;;;9.00;;
2674;SDS011;1347;42.122;24.746;2023-03-13T06:46:33;10.30;;;9.23;;
2674;SDS011;1347;42.122;24.746;2023-03-13T06:49:00;10.63;;;9.63;;
2674;SDS011;1347;42.122;24.746;2023-03-13T06:51:30;10.53;;;9.43;;
2674;SDS011;1347;42.122;24.746;2023-03-13T06:53:57;11.40;;;10.33;;
2674;SDS011;1347;42.122;24.746;2023-03-13T06:56:24;12.50;;;9.70;;
2674;SDS011;1347;42.122;24.746;2023-03-13T06:58:51;11.77;;;10.57;;
2674;SDS011;1347;42.122;24.746;2023-03-13T07:01:19;12.13;;;9.70;;
2674;SDS011;1347;42.122;24.746;2023-03-13T07:03:46;12.93;;;11.73;;
2674;SDS011;1347;42.122;24.746;2023-03-13T07:06:14;12.33;;;11.03;;
2674;SDS011;1347;42.122;24.746;2023-03-13T07:08:42;12.17;;;10.97;;
2674;SDS011;1347;42.122;24.746;2023-03-13T07:11:10;11.20;;;10.13;;
2674;SDS011;1347;42.122;24.746;2023-03-13T07:13:40;11.70;;;10.23;;
2674;SDS011;1347;42.122;24.746;2023-03-13T07:16:08;10.97;;;10.07;;
2674;SDS011;1347;42.122;24.746;2023-03-13T07:18:38;11.73;;;9.87;;
2674;SDS011;1347;42.122;24.746;2023-03-13T07:21:08;9.83;;;9.03;;
2674;SDS011;1347;42.122;24.746;2023-03-13T07:23:36;8.60;;;7.90;;
2674;SDS011;1347;42.122;24.746;2023-03-13T07:26:03;7.17;;;6.57;;
2674;SDS011;1347;42.122;24.746;2023-03-13T07:28:31;8.63;;;7.77;;
2674;SDS011;1347;42.122;24.746;2023-03-13T07:31:02;8.53;;;7.73;;
2674;SDS011;1347;42.122;24.746;2023-03-13T07:33:30;9.70;;;8.80;;
2674;SDS011;1347;42.122;24.746;2023-03-13T07:35:59;10.83;;;8.50;;
2674;SDS011;1347;42.122;24.746;2023-03-13T07:38:26;10.80;;;9.80;;
2674;SDS011;1347;42.122;24.746;2023-03-13T07:40:54;10.90;;;9.73;;
2674;SDS011;1347;42.122;24.746;2023-03-13T07:43:22;10.80;;;9.63;;
2674;SDS011;1347;42.122;24.746;2023-03-13T07:45:50;9.90;;;9.00;;
2674;SDS011;1347;42.122;24.746;2023-03-13T07:48:18;9.50;;;8.60;;
2674;SDS011;1347;42.122;24.746;2023-03-13T07:50:46;10.00;;;9.13;;
2674;SDS011;1347;42.122;24.746;2023-03-13T07:53:15;11.97;;;9.80;;
2674;SDS011;1347;42.122;24.746;2023-03-13T07:55:55;10.00;;;9.10;;
2674;SDS011;1347;42.122;24.746;2023-03-13T07:58:23;9.77;;;8.80;;
2674;SDS011;1347;42.122;24.746;2023-03-13T08:00:52;8.70;;;7.90;;
2674;SDS011;1347;42.122;24.746;2023-03-13T08:03:19;8.93;;;7.90;;
2674;SDS011;1347;42.122;24.746;2023-03-13T08:05:47;8.20;;;7.60;;
2674;SDS011;1347;42.122;24.746;2023-03-13T08:08:24;7.70;;;6.80;;
2674;SDS011;1347;42.122;24.746;2023-03-13T08:10:50;7.97;;;7.17;;
2674;SDS011;1347;42.122;24.746;2023-03-13T08:13:17;8.80;;;7.70;;
2674;SDS011;1347;42.122;24.746;2023-03-13T08:15:44;7.77;;;7.07;;
2674;SDS011;1347;42.122;24.746;2023-03-13T08:18:11;7.87;;;7.17;;
2674;SDS011;1347;42.122;24.746;2023-03-13T08:20:38;7.30;;;6.70;;
2674;SDS011;1347;42.122;24.746;2023-03-13T08:23:05;10.60;;;7.33;;
2674;SDS011;1347;42.122;24.746;2023-03-13T08:25:33;8.00;;;7.20;;
2674;SDS011;1347;42.122;24.746;2023-03-13T08:28:00;7.07;;;6.40;;
2674;SDS011;1347;42.122;24.746;2023-03-13T08:30:27;8.10;;;7.33;;
2674;SDS011;1347;42.122;24.746;2023-03-13T08:32:54;8.67;;;6.13;;
2674;SDS011;1347;42.122;24.746;2023-03-13T08:35:20;7.33;;;6.40;;
2674;SDS011;1347;42.122;24.746;2023-03-13T08:37:47;7.10;;;6.50;;
2674;SDS011;1347;42.122;24.746;2023-03-13T08:40:14;7.43;;;6.83;;
2674;SDS011;1347;42.122;24.746;2023-03-13T08:42:43;6.60;;;6.10;;
2674;SDS011;1347;42.122;24.746;2023-03-13T08:45:10;6.57;;;6.07;;
2674;SDS011;1347;42.122;24.746;2023-03-13T08:47:37;6.77;;;5.60;;
2674;SDS011;1347;42.122;24.746;2023-03-13T08:50:04;6.63;;;6.13;;
2674;SDS011;1347;42.122;24.746;2023-03-13T08:52:32;6.23;;;5.73;;
2674;SDS011;1347;42.122;24.746;2023-03-13T08:54:58;5.70;;;5.30;;
2674;SDS011;1347;42.122;24.746;2023-03-13T08:57:25;7.07;;;6.50;;
2674;SDS011;1347;42.122;24.746;2023-03-13T08:59:54;7.13;;;6.50;;
2674;SDS011;1347;42.122;24.746;2023-03-13T09:02:21;6.93;;;6.43;;
2674;SDS011;1347;42.122;24.746;2023-03-13T09:04:47;6.60;;;6.00;;
2674;SDS011;1347;42.122;24.746;2023-03-13T09:07:14;6.33;;;5.70;;
2674;SDS011;1347;42.122;24.746;2023-03-13T09:09:42;6.50;;;6.10;;
2674;SDS011;1347;42.122;24.746;2023-03-13T09:12:09;5.90;;;5.50;;
2674;SDS011;1347;42.122;24.746;2023-03-13T09:14:36;6.90;;;5.57;;
2674;SDS011;1347;42.122;24.746;2023-03-13T09:17:05;6.30;;;5.73;;
2674;SDS011;1347;42.122;24.746;2023-03-13T09:19:33;6.73;;;6.33;;
2674;SDS011;1347;42.122;24.746;2023-03-13T09:22:00;7.60;;;5.83;;
2674;SDS011;1347;42.122;24.746;2023-03-13T09:24:27;9.70;;;7.80;;
2674;SDS011;1347;42.122;24.746;2023-03-13T09:26:54;14.03;;;12.53;;
2674;SDS011;1347;42.122;24.746;2023-03-13T09:29:21;7.33;;;6.73;;
2674;SDS011;1347;42.122;24.746;2023-03-13T09:31:48;7.50;;;7.00;;
2674;SDS011;1347;42.122;24.746;2023-03-13T09:34:16;8.83;;;7.60;;
2674;SDS011;1347;42.122;24.746;2023-03-13T09:36:43;7.50;;;6.70;;
2674;SDS011;1347;42.122;24.746;2023-03-13T09:39:09;7.53;;;6.90;;
2674;SDS011;1347;42.122;24.746;2023-03-13T09:41:38;5.30;;;5.00;;
2674;SDS011;1347;42.122;24.746;2023-03-13T09:44:12;5.83;;;5.37;;
2674;SDS011;1347;42.122;24.746;2023-03-13T09:46:44;5.13;;;4.83;;
2674;SDS011;1347;42.122;24.746;2023-03-13T09:49:21;6.80;;;6.30;;
2674;SDS011;1347;42.122;24.746;2023-03-13T09:51:57;6.83;;;6.17;;
2674;SDS011;1347;42.122;24.746;2023-03-13T09:54:31;6.97;;;6.47;;
2674;SDS011;1347;42.122;24.746;2023-03-13T09:57:02;7.60;;;7.03;;
2674;SDS011;1347;42.122;24.746;2023-03-13T09:59:36;7.20;;;6.60;;
2674;SDS011;1347;42.122;24.746;2023-03-13T10:02:16;6.70;;;6.10;;
2674;SDS011;1347;42.122;24.746;2023-03-13T10:04:52;9.50;;;6.50;;
2674;SDS011;1347;42.122;24.746;2023-03-13T10:07:25;6.20;;;5.70;;
2674;SDS011;1347;42.122;24.746;2023-03-13T10:09:52;5.67;;;5.10;;
2674;SDS011;1347;42.122;24.746;2023-03-13T10:12:20;6.30;;;5.80;;
2674;SDS011;1347;42.122;24.746;2023-03-13T10:14:56;6.90;;;6.40;;
2674;SDS011;1347;42.122;24.746;2023-03-13T10:17:34;6.33;;;4.90;;
2674;SDS011;1347;42.122;24.746;2023-03-13T10:20:12;6.70;;;6.10;;
2674;SDS011;1347;42.122;24.746;2023-03-13T10:22:46;6.20;;;5.80;;
2674;SDS011;1347;42.122;24.746;2023-03-13T10:25:20;7.63;;;6.77;;
2674;SDS011;1347;42.122;24.746;2023-03-13T10:27:58;8.13;;;7.47;;
2674;SDS011;1347;42.122;24.746;2023-03-13T10:30:26;7.20;;;6.60;;
2674;SDS011;1347;42.122;24.746;2023-03-13T10:32:56;5.60;;;5.10;;
2674;SDS011;1347;42.122;24.746;2023-03-13T10:35:31;5.97;;;5.57;;
2674;SDS011;1347;42.122;24.746;2023-03-13T10:38:04;6.07;;;5.67;;
2674;SDS011;1347;42.122;24.746;2023-03-13T10:40:38;4.67;;;4.27;;
2674;SDS011;1347;42.122;24.746;2023-03-13T10:43:16;3.77;;;3.50;;
2674;SDS011;1347;42.122;24.746;2023-03-13T10:45:44;4.50;;;4.10;;
2674;SDS011;1347;42.122;24.746;2023-03-13T10:48:13;4.27;;;3.87;;
2674;SDS011;1347;42.122;24.746;2023-03-13T10:50:43;4.60;;;4.23;;
2674;SDS011;1347;42.122;24.746;2023-03-13T10:53:21;4.23;;;3.93;;
2674;SDS011;1347;42.122;24.746;2023-03-13T10:55:53;5.30;;;4.80;;
2674;SDS011;1347;42.122;24.746;2023-03-13T10:58:26;5.07;;;4.57;;
2674;SDS011;1347;42.122;24.746;2023-03-13T11:01:08;5.40;;;5.00;;
2674;SDS011;1347;42.122;24.746;2023-03-13T11:03:40;8.60;;;4.90;;
2674;SDS011;1347;42.122;24.746;2023-03-13T11:06:19;7.00;;;5.93;;
2674;SDS011;1347;42.122;24.746;2023-03-13T11:08:50;5.83;;;4.90;;
2674;SDS011;1347;42.122;24.746;2023-03-13T11:11:24;5.40;;;4.90;;
2674;SDS011;1347;42.122;24.746;2023-03-13T11:13:55;6.67;;;4.70;;
2674;SDS011;1347;42.122;24.746;2023-03-13T11:16:33;5.80;;;5.23;;
2674;SDS011;1347;42.122;24.746;2023-03-13T11:19:19;5.93;;;5.40;;
2674;SDS011;1347;42.122;24.746;2023-03-13T11:22:29;5.30;;;4.80;;
2674;SDS011;1347;42.122;24.746;2023-03-13T11:25:07;6.07;;;4.90;;
2674;SDS011;1347;42.122;24.746;2023-03-13T11:27:43;5.83;;;5.30;;
2674;SDS011;1347;42.122;24.746;2023-03-13T11:30:17;5.00;;;4.60;;
2674;SDS011;1347;42.122;24.746;2023-03-13T11:32:50;5.50;;;5.00;;
2674;SDS011;1347;42.122;24.746;2023-03-13T11:35:24;5.10;;;4.70;;
2674;SDS011;1347;42.122;24.746;2023-03-13T11:38:02;10.03;;;8.10;;
2674;SDS011;1347;42.122;24.746;2023-03-13T11:40:35;5.90;;;5.43;;
2674;SDS011;1347;42.122;24.746;2023-03-13T11:43:13;6.13;;;5.07;;
2674;SDS011;1347;42.122;24.746;2023-03-13T11:45:53;5.43;;;4.60;;
2674;SDS011;1347;42.122;24.746;2023-03-13T11:48:42;8.13;;;4.70;;
2674;SDS011;1347;42.122;24.746;2023-03-13T11:51:19;4.00;;;3.60;;
2674;SDS011;1347;42.122;24.746;2023-03-13T11:54:05;4.50;;;3.60;;
2674;SDS011;1347;42.122;24.746;2023-03-13T11:56:49;5.00;;;4.50;;
2674;SDS011;1347;42.122;24.746;2023-03-13T11:59:31;5.10;;;4.60;;
2674;SDS011;1347;42.122;24.746;2023-03-13T12:02:08;4.40;;;4.00;;
2674;SDS011;1347;42.122;24.746;2023-03-13T12:04:44;4.10;;;3.80;;
2674;SDS011;1347;42.122;24.746;2023-03-13T12:07:18;5.40;;;4.87;;
2674;SDS011;1347;42.122;24.746;2023-03-13T12:09:52;5.77;;;5.27;;
2674;SDS011;1347;42.122;24.746;2023-03-13T12:12:24;4.33;;;4.03;;
2674;SDS011;1347;42.122;24.746;2023-03-13T12:15:03;4.63;;;4.23;;
2674;SDS011;1347;42.122;24.746;2023-03-13T12:17:40;7.50;;;5.70;;
2674;SDS011;1347;42.122;24.746;2023-03-13T12:20:12;5.27;;;4.77;;
2674;SDS011;1347;42.122;24.746;2023-03-13T12:22:49;8.43;;;5.07;;
2674;SDS011;1347;42.122;24.746;2023-03-13T12:25:22;4.93;;;4.43;;
2674;SDS011;1347;42.122;24.746;2023-03-13T12:27:53;4.73;;;4.30;;
2674;SDS011;1347;42.122;24.746;2023-03-13T12:30:28;5.47;;;5.00;;
2674;SDS011;1347;42.122;24.746;2023-03-13T12:33:03;5.67;;;5.17;;
2674;SDS011;1347;42.122;24.746;2023-03-13T12:35:38;4.40;;;4.10;;
2674;SDS011;1347;42.122;24.746;2023-03-13T12:38:11;6.23;;;4.07;;
2674;SDS011;1347;42.122;24.746;2023-03-13T12:40:46;4.90;;;4.50;;
2674;SDS011;1347;42.122;24.746;2023-03-13T12:43:18;4.80;;;4.40;;
2674;SDS011;1347;42.122;24.746;2023-03-13T12:45:53;4.80;;;4.40;;
2674;SDS011;1347;42.122;24.746;2023-03-13T12:48:44;4.97;;;4.57;;
2674;SDS011;1347;42.122;24.746;2023-03-13T12:51:27;5.00;;;4.60;;
2674;SDS011;1347;42.122;24.746;2023-03-13T12:54:09;4.20;;;3.90;;
2674;SDS011;1347;42.122;24.746;2023-03-13T12:56:52;4.20;;;3.80;;
2674;SDS011;1347;42.122;24.746;2023-03-13T12:59:31;4.50;;;4.10;;
2674;SDS011;1347;42.122;24.746;2023-03-13T13:02:11;4.30;;;3.77;;
2674;SDS011;1347;42.122;24.746;2023-03-13T13:04:42;4.90;;;4.50;;
2674;SDS011;1347;42.122;24.746;2023-03-13T13:07:19;4.73;;;4.33;;
2674;SDS011;1347;42.122;24.746;2023-03-13T13:10:00;4.40;;;4.10;;
2674;SDS011;1347;42.122;24.746;2023-03-13T13:12:41;4.70;;;4.03;;
2674;SDS011;1347;42.122;24.746;2023-03-13T13:15:16;5.53;;;3.93;;
2674;SDS011;1347;42.122;24.746;2023-03-13T13:17:49;5.03;;;4.20;;
2674;SDS011;1347;42.122;24.746;2023-03-13T13:20:30;4.00;;;3.70;;
2674;SDS011;1347;42.122;24.746;2023-03-13T13:23:19;4.53;;;4.13;;
2674;SDS011;1347;42.122;24.746;2023-03-13T13:25:49;4.97;;;4.50;;
2674;SDS011;1347;42.122;24.746;2023-03-13T13:28:25;4.63;;;4.00;;
2674;SDS011;1347;42.122;24.746;2023-03-13T13:30:59;5.00;;;4.60;;
2674;SDS011;1347;42.122;24.746;2023-03-13T13:33:33;4.50;;;4.10;;
2674;SDS011;1347;42.122;24.746;2023-03-13T13:39:20;4.30;;;3.90;;
2674;SDS011;1347;42.122;24.746;2023-03-13T13:42:01;4.03;;;3.73;;
2674;SDS011;1347;42.122;24.746;2023-03-13T13:45:29;4.93;;;4.03;;
2674;SDS011;1347;42.122;24.746;2023-03-13T13:53:48;6.93;;;3.67;;
2674;SDS011;1347;42.122;24.746;2023-03-13T13:59:26;5.40;;;4.10;;
2674;SDS011;1347;42.122;24.746;2023-03-13T14:02:15;3.83;;;3.53;;
2674;SDS011;1347;42.122;24.746;2023-03-13T14:04:46;4.30;;;3.90;;
2674;SDS011;1347;42.122;24.746;2023-03-13T14:07:16;4.07;;;3.77;;
2674;SDS011;1347;42.122;24.746;2023-03-13T14:09:49;4.80;;;4.23;;
2674;SDS011;1347;42.122;24.746;2023-03-13T14:12:24;4.43;;;3.70;;
2674;SDS011;1347;42.122;24.746;2023-03-13T14:15:06;3.90;;;3.50;;
2674;SDS011;1347;42.122;24.746;2023-03-13T14:17:39;4.93;;;3.90;;
2674;SDS011;1347;42.122;24.746;2023-03-13T14:20:21;7.67;;;4.43;;
2674;SDS011;1347;42.122;24.746;2023-03-13T14:22:51;6.70;;;4.27;;
2674;SDS011;1347;42.122;24.746;2023-03-13T14:25:19;4.30;;;3.90;;
2674;SDS011;1347;42.122;24.746;2023-03-13T14:27:47;4.20;;;3.80;;
2674;SDS011;1347;42.122;24.746;2023-03-13T14:30:15;4.53;;;3.67;;
2674;SDS011;1347;42.122;24.746;2023-03-13T14:32:45;4.07;;;3.67;;
2674;SDS011;1347;42.122;24.746;2023-03-13T14:35:13;5.13;;;3.70;;
2674;SDS011;1347;42.122;24.746;2023-03-13T14:37:43;4.70;;;4.30;;
2674;SDS011;1347;42.122;24.746;2023-03-13T14:40:18;3.30;;;3.10;;
2674;SDS011;1347;42.122;24.746;2023-03-13T14:42:57;4.00;;;3.63;;
2674;SDS011;1347;42.122;24.746;2023-03-13T14:45:27;3.87;;;3.53;;
2674;SDS011;1347;42.122;24.746;2023-03-13T14:48:01;6.80;;;5.93;;
2674;SDS011;1347;42.122;24.746;2023-03-13T14:50:29;5.73;;;3.90;;
2674;SDS011;1347;42.122;24.746;2023-03-13T14:52:58;7.77;;;4.90;;
2674;SDS011;1347;42.122;24.746;2023-03-13T14:55:33;5.00;;;3.30;;
2674;SDS011;1347;42.122;24.746;2023-03-13T14:58:05;18.63;;;7.03;;
2674;SDS011;1347;42.122;24.746;2023-03-13T15:00:52;8.57;;;4.80;;
2674;SDS011;1347;42.122;24.746;2023-03-13T15:03:31;10.67;;;4.10;;
2674;SDS011;1347;42.122;24.746;2023-03-13T15:06:03;4.53;;;4.13;;
2674;SDS011;1347;42.122;24.746;2023-03-13T15:08:31;4.90;;;3.40;;
2674;SDS011;1347;42.122;24.746;2023-03-13T15:10:59;4.37;;;3.97;;
2674;SDS011;1347;42.122;24.746;2023-03-13T15:13:27;5.70;;;4.20;;
2674;SDS011;1347;42.122;24.746;2023-03-13T15:16:00;5.20;;;4.60;;
2674;SDS011;1347;42.122;24.746;2023-03-13T15:18:29;3.90;;;3.60;;
2674;SDS011;1347;42.122;24.746;2023-03-13T15:23:53;5.03;;;4.53;;
2674;SDS011;1347;42.122;24.746;2023-03-13T15:26:21;4.20;;;3.80;;
2674;SDS011;1347;42.122;24.746;2023-03-13T15:28:48;8.13;;;4.57;;
2674;SDS011;1347;42.122;24.746;2023-03-13T15:31:15;8.97;;;4.87;;
2674;SDS011;1347;42.122;24.746;2023-03-13T15:33:45;4.87;;;3.70;;
2674;SDS011;1347;42.122;24.746;2023-03-13T15:36:11;5.57;;;3.97;;